Time;durP1;ratioP1;P1;durP2;ratioP2;P2;SDS_P1;SDS_P2;PMS_P1;PMS_P2;Temp;Humidity;BMP_temperature;BMP_pressure;BME280_temperature;BME280_humidity;BME280_pressure;Samples;Min_cycle;Max_cycle;Signal;HPM_P1;HPM_P2
2023/05/15 00:02:18;;;;;;;1.30;0.95;;;12.40;99.90;;;;;;6063275;23;21094;-83
2023/05/15 00:04:45;;;;;;;1.00;0.90;;;12.40;99.90;;;;;;6062735;23;20758;-82
2023/05/15 00:07:12;;;;;;;1.00;0.90;;;12.40;99.90;;;;;;6063525;23;20429;-82
2023/05/15 00:09:39;;;;;;;1.07;0.90;;;12.40;99.90;;;;;;6063753;23;20383;-82
2023/05/15 00:12:06;;;;;;;1.00;0.90;;;12.40;99.90;;;;;;6063980;23;20802;-82
2023/05/15 00:14:33;;;;;;;1.70;1.10;;;12.30;99.90;;;;;;6063387;23;20423;-82
2023/05/15 00:17:00;;;;;;;1.15;1.05;;;12.40;99.90;;;;;;6062567;23;20402;-82
2023/05/15 00:19:27;;;;;;;1.15;0.90;;;12.30;99.90;;;;;;6063431;23;20379;-82
2023/05/15 00:21:54;;;;;;;1.20;0.82;;;12.30;99.90;;;;;;6063801;23;20695;-82
2023/05/15 00:24:21;;;;;;;1.30;0.80;;;12.30;99.90;;;;;;6063324;23;20383;-82
2023/05/15 00:26:48;;;;;;;1.10;0.90;;;12.20;99.90;;;;;;6086798;23;20457;-82
2023/05/15 00:29:15;;;;;;;1.53;0.83;;;12.10;99.90;;;;;;6062749;23;20376;-82
2023/05/15 00:31:41;;;;;;;1.20;0.90;;;12.10;99.90;;;;;;6063913;23;20399;-83
2023/05/15 00:34:08;;;;;;;1.20;0.68;;;12.10;99.90;;;;;;6086536;23;20394;-83
2023/05/15 00:36:35;;;;;;;1.10;0.73;;;12.10;99.90;;;;;;6065124;23;20406;-83
2023/05/15 00:39:02;;;;;;;0.98;0.70;;;12.10;99.90;;;;;;6062304;23;20462;-82
2023/05/15 00:41:31;;;;;;;0.90;0.60;;;12.10;99.90;;;;;;6063611;23;20743;-82
2023/05/15 00:43:59;;;;;;;1.00;0.60;;;12.10;99.90;;;;;;6062820;23;20454;-83
2023/05/15 00:46:31;;;;;;;1.00;0.80;;;12.10;99.90;;;;;;6063507;23;20398;-82
2023/05/15 00:48:59;;;;;;;0.82;0.80;;;12.10;99.90;;;;;;6062456;23;20722;-83
2023/05/15 00:51:26;;;;;;;0.93;0.80;;;12.20;99.90;;;;;;6063254;23;20445;-82
2023/05/15 00:53:55;;;;;;;1.00;0.90;;;12.20;99.90;;;;;;6062516;23;20414;-82
2023/05/15 00:56:24;;;;;;;1.08;0.90;;;12.30;99.90;;;;;;6063371;23;20375;-83
2023/05/15 00:58:52;;;;;;;1.20;1.10;;;12.30;99.90;;;;;;6063172;23;20387;-83
2023/05/15 01:01:19;;;;;;;1.87;1.07;;;12.30;99.90;;;;;;6086449;23;20423;-77
2023/05/15 02:47:36;;;;;;;1.90;1.73;;;12.20;99.90;;;;;;6102842;23;20380;-79
2023/05/15 02:50:04;;;;;;;2.28;2.08;;;12.20;99.90;;;;;;6097546;23;20367;-79
2023/05/15 02:52:34;;;;;;;2.00;1.90;;;12.10;99.90;;;;;;6097018;23;20671;-79
2023/05/15 02:55:01;;;;;;;2.20;2.00;;;12.10;99.90;;;;;;6097132;23;20749;-79
2023/05/15 02:57:28;;;;;;;2.17;2.05;;;12.10;99.90;;;;;;6121980;23;20376;-79
2023/05/15 02:59:58;;;;;;;1.60;1.50;;;12.00;99.90;;;;;;6123882;23;20439;-82
2023/05/15 03:02:25;;;;;;;2.10;1.90;;;12.00;99.90;;;;;;6092615;23;20449;-82
2023/05/15 03:04:54;;;;;;;2.70;1.70;;;12.00;99.90;;;;;;6070836;23;20390;-82
2023/05/15 03:07:22;;;;;;;1.75;1.65;;;11.90;99.90;;;;;;6069223;23;20448;-83
2023/05/15 03:09:50;;;;;;;2.20;1.60;;;11.90;99.90;;;;;;6070867;23;20413;-82
2023/05/15 03:12:19;;;;;;;2.73;1.97;;;11.90;99.90;;;;;;6052636;23;20378;-82
2023/05/15 03:14:48;;;;;;;2.50;2.30;;;11.80;99.90;;;;;;6068336;23;20428;-82
2023/05/15 03:17:16;;;;;;;2.40;1.88;;;11.80;99.90;;;;;;6069446;23;20382;-82
2023/05/15 03:19:43;;;;;;;3.00;2.65;;;11.70;99.90;;;;;;6069238;23;20374;-82
2023/05/15 03:22:12;;;;;;;3.08;2.78;;;11.60;99.90;;;;;;6068502;23;20447;-82
2023/05/15 03:24:39;;;;;;;2.15;1.95;;;11.50;99.90;;;;;;6050570;23;20405;-82
2023/05/15 03:27:06;;;;;;;2.35;2.15;;;11.50;99.90;;;;;;6049897;23;20385;-83
2023/05/15 03:29:33;;;;;;;2.97;1.83;;;11.50;99.90;;;;;;6069295;23;20381;-82
2023/05/15 03:32:00;;;;;;;2.00;1.80;;;11.50;99.90;;;;;;6070067;23;20378;-82
2023/05/15 03:34:28;;;;;;;1.60;1.30;;;11.40;99.90;;;;;;6070478;23;20381;-83
2023/05/15 03:37:01;;;;;;;1.55;1.45;;;11.40;99.90;;;;;;6069439;23;20748;-82
2023/05/15 03:39:32;;;;;;;1.95;1.63;;;11.30;99.90;;;;;;6070614;23;20405;-82
2023/05/15 03:42:00;;;;;;;2.13;1.90;;;11.30;99.90;;;;;;6069757;23;20381;-83
2023/05/15 03:44:28;;;;;;;3.38;2.42;;;11.30;99.90;;;;;;6069516;23;20382;-82
2023/05/15 03:46:56;;;;;;;3.50;3.20;;;11.20;99.90;;;;;;6066308;23;20878;-82
2023/05/15 03:49:24;;;;;;;3.30;2.72;;;11.10;99.90;;;;;;6070224;23;20381;-82
2023/05/15 03:51:51;;;;;;;2.20;2.00;;;11.00;99.90;;;;;;6069081;23;20385;-82
2023/05/15 03:54:22;;;;;;;2.70;2.50;;;11.00;99.90;;;;;;6070433;23;20417;-82
2023/05/15 03:56:49;;;;;;;2.30;2.10;;;10.90;99.90;;;;;;6052019;23;20517;-82
2023/05/15 03:59:17;;;;;;;2.78;2.58;;;10.90;99.90;;;;;;6070081;23;20369;-82
2023/05/15 04:01:44;;;;;;;3.40;2.92;;;10.90;99.90;;;;;;6068978;23;20409;-82
2023/05/15 04:04:29;;;;;;;2.55;2.35;;;10.80;99.90;;;;;;6073243;23;20377;-82
2023/05/15 04:06:56;;;;;;;2.90;2.67;;;10.80;99.90;;;;;;6069958;23;20449;-82
2023/05/15 04:09:23;;;;;;;3.60;3.05;;;10.80;99.90;;;;;;6069214;23;20712;-82
2023/05/15 04:11:50;;;;;;;4.78;3.92;;;10.80;99.90;;;;;;6069782;23;20405;-82
2023/05/15 04:14:17;;;;;;;4.18;3.78;;;10.70;99.90;;;;;;6068623;23;20764;-82
2023/05/15 04:16:47;;;;;;;4.35;3.88;;;10.70;99.90;;;;;;6069289;23;20385;-82
2023/05/15 04:19:17;;;;;;;4.85;4.30;;;10.70;99.90;;;;;;6091653;23;20386;-82
2023/05/15 04:21:47;;;;;;;4.95;4.45;;;10.60;99.90;;;;;;6067962;23;20386;-82
2023/05/15 04:24:14;;;;;;;3.50;3.20;;;10.60;99.90;;;;;;6069454;23;20378;-82
2023/05/15 04:26:41;;;;;;;3.10;2.90;;;10.60;99.90;;;;;;6070051;23;20428;-82
2023/05/15 04:29:08;;;;;;;4.68;3.92;;;10.60;99.90;;;;;;6067474;23;20385;-82
2023/05/15 04:31:37;;;;;;;4.60;3.33;;;10.60;99.90;;;;;;6068870;23;20378;-82
2023/05/15 04:34:04;;;;;;;5.68;4.68;;;10.60;99.90;;;;;;6068468;23;20381;-82
2023/05/15 04:36:33;;;;;;;4.70;3.67;;;10.60;99.90;;;;;;6068288;23;20693;-82
2023/05/15 04:39:02;;;;;;;4.80;4.35;;;10.60;99.90;;;;;;6057790;23;20456;-82
2023/05/15 04:41:32;;;;;;;4.90;4.50;;;10.60;99.90;;;;;;6067010;23;20724;-82
2023/05/15 04:44:00;;;;;;;4.85;3.85;;;10.60;99.90;;;;;;6093908;23;20409;-82
2023/05/15 04:46:28;;;;;;;3.40;3.08;;;10.70;99.90;;;;;;6067992;23;20381;-82
2023/05/15 04:48:55;;;;;;;3.53;3.22;;;10.70;99.90;;;;;;6093988;23;20418;-82
2023/05/15 04:51:23;;;;;;;4.80;4.30;;;10.80;99.90;;;;;;6067641;23;20918;-82
2023/05/15 04:53:51;;;;;;;6.18;5.45;;;10.90;99.90;;;;;;6069279;23;20381;-82
2023/05/15 04:56:18;;;;;;;4.05;3.75;;;11.00;99.90;;;;;;6069273;23;20389;-82
2023/05/15 04:58:46;;;;;;;3.92;3.58;;;11.00;99.90;;;;;;6069950;23;20697;-82
2023/05/15 05:01:13;;;;;;;5.03;4.53;;;11.10;99.90;;;;;;6069038;23;20440;-82
2023/05/15 05:03:40;;;;;;;5.00;4.60;;;11.20;99.90;;;;;;6069398;23;20530;-82
2023/05/15 05:06:10;;;;;;;6.13;5.53;;;11.20;99.90;;;;;;6094762;23;20389;-83
2023/05/15 05:08:37;;;;;;;5.10;4.60;;;11.30;99.90;;;;;;6055074;23;20870;-82
2023/05/15 05:11:07;;;;;;;4.85;4.45;;;11.40;99.90;;;;;;6070564;23;20388;-82
2023/05/15 05:13:36;;;;;;;5.05;3.88;;;11.40;99.90;;;;;;6071057;23;20378;-82
2023/05/15 05:16:04;;;;;;;4.03;3.70;;;11.50;99.90;;;;;;6071154;23;20432;-82
2023/05/15 05:18:32;;;;;;;5.63;4.72;;;11.50;99.90;;;;;;6055131;23;20387;-83
2023/05/15 05:21:00;;;;;;;6.28;5.68;;;11.50;99.90;;;;;;6070555;23;20787;-83
2023/05/15 05:23:30;;;;;;;7.90;6.90;;;11.50;99.90;;;;;;6092917;23;20417;-82
2023/05/15 05:25:59;;;;;;;10.50;8.70;;;11.50;99.90;;;;;;6093835;23;20384;-82
2023/05/15 05:28:30;;;;;;;9.55;8.63;;;11.50;99.90;;;;;;6066427;23;20432;-82
2023/05/15 05:30:57;;;;;;;9.10;7.78;;;11.50;99.90;;;;;;6069995;23;20437;-82
2023/05/15 05:33:27;;;;;;;6.75;6.05;;;11.60;99.90;;;;;;6069696;23;20456;-82
2023/05/15 05:35:54;;;;;;;5.43;4.93;;;11.60;99.90;;;;;;6069491;23;20385;-79
2023/05/15 05:38:21;;;;;;;6.10;5.50;;;11.60;99.90;;;;;;6069545;23;20373;-78
2023/05/15 05:40:49;;;;;;;6.33;5.67;;;11.60;99.90;;;;;;6068352;23;20444;-80
2023/05/15 05:43:16;;;;;;;5.95;5.35;;;11.60;99.90;;;;;;6069820;23;20392;-78
2023/05/15 05:45:43;;;;;;;6.22;5.60;;;11.60;99.90;;;;;;6068317;23;20408;-78
2023/05/15 05:48:10;;;;;;;5.90;5.32;;;11.60;99.90;;;;;;6069312;23;20786;-80
2023/05/15 05:50:37;;;;;;;8.55;7.25;;;11.60;99.90;;;;;;6067833;23;20382;-78
2023/05/15 05:53:04;;;;;;;8.93;8.02;;;11.70;99.90;;;;;;6092964;23;20420;-78
2023/05/15 05:55:31;;;;;;;7.88;7.07;;;11.80;99.90;;;;;;6068637;23;20465;-78
2023/05/15 05:57:57;;;;;;;7.20;6.50;;;11.90;99.90;;;;;;6068044;23;20449;-78
2023/05/15 06:00:24;;;;;;;10.27;8.73;;;12.00;99.90;;;;;;6068784;23;20461;-79
2023/05/15 06:02:57;;;;;;;10.30;9.20;;;12.00;99.90;;;;;;6068547;23;20724;-78
2023/05/15 06:05:26;;;;;;;16.25;13.43;;;12.10;99.90;;;;;;6069058;23;20744;-79
2023/05/15 06:07:53;;;;;;;10.98;9.80;;;12.20;99.90;;;;;;6067882;23;20617;-80
2023/05/15 06:10:20;;;;;;;11.27;10.07;;;12.20;99.90;;;;;;6069067;23;20716;-79
2023/05/15 06:12:47;;;;;;;9.52;8.63;;;12.30;99.90;;;;;;6067547;23;20385;-79
2023/05/15 06:15:15;;;;;;;12.52;11.18;;;12.30;99.90;;;;;;6068704;23;20413;-79
2023/05/15 06:17:42;;;;;;;16.70;14.77;;;12.50;99.90;;;;;;6067833;23;20449;-80
2023/05/15 06:20:09;;;;;;;17.75;15.10;;;12.50;99.90;;;;;;6093842;23;20384;-78
2023/05/15 06:22:36;;;;;;;15.70;14.00;;;12.50;99.90;;;;;;6067664;23;20378;-79
2023/05/15 06:25:04;;;;;;;14.30;12.60;;;12.50;99.90;;;;;;6068606;23;20385;-78
2023/05/15 06:27:32;;;;;;;12.15;10.85;;;12.60;99.90;;;;;;6069087;23;20385;-79
2023/05/15 06:29:59;;;;;;;13.50;12.10;;;12.70;99.90;;;;;;6068167;23;20428;-78
2023/05/15 06:32:26;;;;;;;16.37;14.63;;;12.70;99.90;;;;;;6069114;23;20377;-78
2023/05/15 06:34:53;;;;;;;13.43;11.93;;;12.80;99.90;;;;;;6068294;23;20386;-79
2023/05/15 06:37:20;;;;;;;12.23;11.02;;;12.80;99.90;;;;;;6092453;23;20413;-79
2023/05/15 06:39:46;;;;;;;14.07;12.57;;;12.90;99.90;;;;;;6068214;23;20425;-78
2023/05/15 06:42:14;;;;;;;11.65;10.45;;;12.90;99.90;;;;;;6068629;23;20685;-78
2023/05/15 06:44:40;;;;;;;16.00;13.63;;;13.00;99.90;;;;;;6068485;23;20396;-79
2023/05/15 06:47:07;;;;;;;12.75;11.45;;;13.00;99.90;;;;;;6091830;23;20393;-79
2023/05/15 06:49:34;;;;;;;11.20;10.10;;;13.10;99.90;;;;;;6068942;23;20388;-80
2023/05/15 06:52:01;;;;;;;15.13;12.93;;;13.20;99.90;;;;;;6067685;23;20437;-79
2023/05/15 06:54:28;;;;;;;15.17;13.60;;;13.30;99.90;;;;;;6068833;23;20510;-79
2023/05/15 06:56:55;;;;;;;17.77;15.00;;;13.30;99.90;;;;;;6067691;23;20389;-78
2023/05/15 06:59:22;;;;;;;12.83;11.27;;;13.40;99.90;;;;;;6068928;23;20393;-79
2023/05/15 07:01:49;;;;;;;13.20;11.80;;;13.40;99.90;;;;;;6067299;23;20385;-79
2023/05/15 07:04:16;;;;;;;13.27;11.88;;;13.50;99.90;;;;;;6069076;23;20844;-78
2023/05/15 07:06:43;;;;;;;11.43;10.02;;;13.50;99.90;;;;;;6067489;23;20741;-79
2023/05/15 07:09:09;;;;;;;12.75;11.25;;;13.60;99.90;;;;;;6069068;23;20425;-80
2023/05/15 07:11:37;;;;;;;11.50;10.30;;;13.70;99.90;;;;;;6093108;23;20381;-79
2023/05/15 07:14:05;;;;;;;14.18;12.68;;;13.70;99.90;;;;;;6092690;23;20860;-79
2023/05/15 07:16:32;;;;;;;14.85;13.25;;;13.80;99.90;;;;;;6068846;23;20369;-79
2023/05/15 07:19:00;;;;;;;14.50;13.00;;;13.90;99.90;;;;;;6067250;23;20429;-78
2023/05/15 07:21:26;;;;;;;12.68;11.38;;;13.90;99.90;;;;;;6068485;23;20382;-78
2023/05/15 07:23:53;;;;;;;16.10;14.40;;;13.90;99.90;;;;;;6067681;23;20377;-78
2023/05/15 07:26:20;;;;;;;14.82;13.30;;;13.90;99.90;;;;;;6092192;23;20373;-79
2023/05/15 07:29:04;;;;;;;14.35;12.85;;;13.90;99.90;;;;;;6070423;23;20391;-79
2023/05/15 07:31:32;;;;;;;14.93;13.33;;;14.00;99.90;;;;;;6068836;23;20460;-80
2023/05/15 07:33:59;;;;;;;12.68;11.38;;;14.10;99.90;;;;;;6067265;23;20468;-79
2023/05/15 07:36:26;;;;;;;12.05;10.85;;;14.30;99.90;;;;;;6068833;23;20381;-78
2023/05/15 07:38:53;;;;;;;12.20;10.90;;;14.50;99.90;;;;;;6067021;23;20469;-79
2023/05/15 07:41:20;;;;;;;14.63;11.80;;;14.70;99.90;;;;;;6068566;23;20444;-79
2023/05/15 07:43:47;;;;;;;11.07;9.98;;;15.00;99.90;;;;;;6067035;23;20389;-79
2023/05/15 07:46:14;;;;;;;12.18;10.77;;;15.20;99.90;;;;;;6067764;23;20378;-79
2023/05/15 07:48:41;;;;;;;11.98;10.75;;;15.50;99.90;;;;;;6067387;23;20373;-79
2023/05/15 07:51:08;;;;;;;10.45;9.45;;;15.70;99.90;;;;;;6092235;23;20377;-79
2023/05/15 07:53:35;;;;;;;11.18;10.07;;;15.80;99.90;;;;;;6067875;23;20433;-80
2023/05/15 07:56:02;;;;;;;9.77;8.77;;;16.00;99.90;;;;;;6067080;23;20773;-78
2023/05/15 07:58:29;;;;;;;9.45;8.55;;;16.10;99.90;;;;;;6068357;23;20437;-79
2023/05/15 08:00:56;;;;;;;9.88;8.82;;;16.10;99.90;;;;;;6067491;23;20408;-79
2023/05/15 08:03:22;;;;;;;9.10;8.20;;;16.30;99.90;;;;;;6067952;23;20381;-79
2023/05/15 08:05:50;;;;;;;12.18;11.00;;;16.40;99.90;;;;;;6067434;23;20786;-80
2023/05/15 08:08:17;;;;;;;10.53;9.50;;;16.60;99.90;;;;;;6067625;23;20426;-79
2023/05/15 08:10:44;;;;;;;8.30;7.50;;;16.80;99.90;;;;;;6068075;23;20385;-79
2023/05/15 08:13:11;;;;;;;9.27;8.27;;;16.90;99.90;;;;;;6067064;23;20441;-80
2023/05/15 08:15:38;;;;;;;6.18;5.68;;;17.00;99.90;;;;;;6068386;23;20381;-79
2023/05/15 08:18:09;;;;;;;6.37;5.83;;;17.20;99.90;;;;;;6066622;23;20388;-80
2023/05/15 08:20:37;;;;;;;6.90;6.30;;;17.40;99.90;;;;;;6068299;23;20458;-79
2023/05/15 08:23:04;;;;;;;6.40;5.80;;;17.60;99.90;;;;;;6066680;23;20385;-79
2023/05/15 08:25:31;;;;;;;6.75;6.07;;;17.80;98.40;;;;;;6068277;23;20406;-79
2023/05/15 08:27:58;;;;;;;6.95;6.22;;;18.00;97.10;;;;;;6066683;23;20381;-79
2023/05/15 08:30:24;;;;;;;6.55;5.95;;;18.10;95.60;;;;;;6093088;23;20759;-80
2023/05/15 08:32:51;;;;;;;4.93;4.53;;;18.20;93.30;;;;;;6067745;23;20377;-79
2023/05/15 08:35:21;;;;;;;5.75;5.25;;;18.30;93.40;;;;;;6068181;23;20425;-79
2023/05/15 08:37:48;;;;;;;6.40;5.80;;;18.30;91.40;;;;;;6067605;23;20385;-79
2023/05/15 08:40:15;;;;;;;5.40;5.00;;;18.40;91.50;;;;;;6066762;23;20404;-79
2023/05/15 08:42:54;;;;;;;4.87;4.47;;;18.50;91.70;;;;;;6067996;23;20373;-79
2023/05/15 08:45:21;;;;;;;5.05;4.65;;;18.60;92.00;;;;;;6066619;23;20376;-79
2023/05/15 08:47:48;;;;;;;5.65;5.07;;;18.80;91.70;;;;;;6067751;23;20688;-79
2023/05/15 08:50:16;;;;;;;4.10;3.72;;;18.90;88.60;;;;;;6066910;23;20411;-80
2023/05/15 08:52:45;;;;;;;4.40;4.00;;;19.00;86.50;;;;;;6068132;23;20408;-79
2023/05/15 08:55:14;;;;;;;5.68;4.93;;;19.20;88.60;;;;;;6066883;23;20444;-80
2023/05/15 08:57:41;;;;;;;4.18;3.88;;;19.30;87.10;;;;;;6067927;23;20724;-81
2023/05/15 09:00:13;;;;;;;3.15;2.92;;;19.40;85.60;;;;;;6066734;23;20472;-79
2023/05/15 09:02:41;;;;;;;4.85;4.32;;;19.60;85.80;;;;;;6067977;23;20377;-80
2023/05/15 09:05:09;;;;;;;3.50;3.20;;;19.70;80.30;;;;;;6066537;23;21012;-79
2023/05/15 09:07:39;;;;;;;4.32;3.90;;;19.80;80.70;;;;;;6091613;23;20403;-80
2023/05/15 09:10:08;;;;;;;3.38;3.05;;;19.80;81.50;;;;;;6066378;23;20409;-80
2023/05/15 09:12:37;;;;;;;4.50;4.10;;;19.90;82.00;;;;;;6067650;23;20441;-81
2023/05/15 09:15:16;;;;;;;3.33;3.13;;;20.10;81.40;;;;;;6067100;23;20428;-80
2023/05/15 09:17:44;;;;;;;5.90;5.40;;;20.20;82.40;;;;;;6067178;23;20751;-80
2023/05/15 09:20:25;;;;;;;4.43;4.07;;;20.30;75.60;;;;;;6066691;23;20728;-79
2023/05/15 09:22:53;;;;;;;4.07;3.78;;;20.30;75.30;;;;;;6067378;23;20803;-79
2023/05/15 09:25:40;;;;;;;4.43;4.03;;;20.20;76.80;;;;;;6090723;23;20445;-80
2023/05/15 09:28:09;;;;;;;3.22;2.92;;;20.20;76.50;;;;;;6090478;23;20904;-80
2023/05/15 09:30:42;;;;;;;3.40;3.20;;;20.30;77.40;;;;;;6067518;23;20380;-81
2023/05/15 09:33:10;;;;;;;2.92;2.65;;;20.40;78.40;;;;;;6066516;23;20433;-79
2023/05/15 09:35:39;;;;;;;1.90;1.80;;;20.50;78.50;;;;;;6067255;23;20708;-80
2023/05/15 09:38:11;;;;;;;2.58;2.38;;;20.80;76.80;;;;;;6067271;23;20377;-79
2023/05/15 09:40:41;;;;;;;1.83;1.73;;;21.10;70.50;;;;;;6067626;23;20405;-80
2023/05/15 09:43:11;;;;;;;1.60;1.27;;;21.30;66.40;;;;;;6067584;23;20437;-79
2023/05/15 09:45:38;;;;;;;1.08;0.90;;;21.60;67.90;;;;;;6068905;23;20803;-80
2023/05/15 09:48:06;;;;;;;1.58;1.40;;;21.80;66.40;;;;;;6067507;23;20397;-80
2023/05/15 09:50:38;;;;;;;2.10;1.35;;;22.00;65.40;;;;;;6068950;23;20409;-79
2023/05/15 09:53:05;;;;;;;1.20;0.82;;;22.20;64.80;;;;;;6068069;23;20388;-79
2023/05/15 09:55:35;;;;;;;1.17;1.08;;;22.30;64.10;;;;;;6068955;23;20382;-79
2023/05/15 09:58:12;;;;;;;1.40;1.30;;;22.40;60.90;;;;;;6069278;23;20452;-80
2023/05/15 10:00:41;;;;;;;1.50;1.10;;;22.50;61.20;;;;;;6068442;23;20388;-79
2023/05/15 10:03:15;;;;;;;2.33;1.17;;;22.70;61.20;;;;;;6070315;23;20764;-79
2023/05/15 10:05:42;;;;;;;1.58;0.90;;;22.80;59.00;;;;;;6068444;23;20740;-79
2023/05/15 10:08:11;;;;;;;1.67;0.93;;;22.90;58.40;;;;;;6094014;23;20736;-79
2023/05/15 10:10:38;;;;;;;1.03;0.90;;;23.00;57.70;;;;;;6068301;23;20720;-80
2023/05/15 10:13:06;;;;;;;1.03;0.93;;;23.10;58.10;;;;;;6068759;23;20790;-80
2023/05/15 10:15:36;;;;;;;0.95;0.85;;;23.10;56.20;;;;;;6068351;23;20382;-79
2023/05/15 10:18:04;;;;;;;1.20;1.10;;;23.20;56.50;;;;;;6069004;23;20393;-79
2023/05/15 10:20:34;;;;;;;1.17;1.08;;;23.10;55.20;;;;;;6067909;23;20390;-79
2023/05/15 10:23:04;;;;;;;1.42;0.90;;;23.00;55.60;;;;;;6069067;23;20457;-80
2023/05/15 10:25:54;;;;;;;1.30;0.75;;;22.90;54.10;;;;;;6068011;23;20421;-82
2023/05/15 10:28:22;;;;;;;1.10;0.80;;;22.80;54.10;;;;;;6067579;23;20445;-79
2023/05/15 10:30:50;;;;;;;1.00;0.70;;;22.80;54.50;;;;;;6093981;23;20441;-79
2023/05/15 10:33:19;;;;;;;1.38;0.50;;;22.80;53.20;;;;;;6068604;23;20370;-79
2023/05/15 10:35:47;;;;;;;1.07;0.60;;;22.70;53.70;;;;;;6068378;23;20357;-80
2023/05/15 10:38:15;;;;;;;1.20;0.63;;;22.70;53.30;;;;;;6069146;23;20377;-79
2023/05/15 10:40:44;;;;;;;0.75;0.50;;;22.60;52.60;;;;;;6092876;23;20445;-79
2023/05/15 10:43:13;;;;;;;0.88;0.43;;;22.50;52.50;;;;;;6069381;23;20377;-80
2023/05/15 10:45:40;;;;;;;0.50;0.50;;;22.60;53.10;;;;;;6092287;23;20440;-79
2023/05/15 10:48:10;;;;;;;0.40;0.40;;;22.70;53.70;;;;;;6068761;23;20380;-80
2023/05/15 10:50:38;;;;;;;1.40;0.50;;;22.80;52.90;;;;;;6067647;23;20387;-79
2023/05/15 10:53:05;;;;;;;0.80;0.63;;;23.00;50.60;;;;;;6068584;23;20397;-79
2023/05/15 10:55:32;;;;;;;0.47;0.40;;;23.20;49.40;;;;;;6067077;23;20377;-79
2023/05/15 10:57:59;;;;;;;0.88;0.40;;;23.20;49.80;;;;;;6068839;23;20378;-79
2023/05/15 11:00:27;;;;;;;0.90;0.30;;;23.30;50.20;;;;;;6067347;23;20410;-79
2023/05/15 11:02:57;;;;;;;0.30;0.30;;;23.50;46.70;;;;;;6094218;23;20444;-80
2023/05/15 11:05:25;;;;;;;0.73;0.30;;;23.40;47.20;;;;;;6067418;23;20709;-80
2023/05/15 11:08:14;;;;;;;0.90;0.30;;;23.40;48.20;;;;;;6069276;23;20369;-79
2023/05/15 11:10:41;;;;;;;0.70;0.30;;;23.50;46.70;;;;;;6091652;23;20391;-80
2023/05/15 11:13:08;;;;;;;0.93;0.30;;;23.50;46.50;;;;;;6068268;23;20377;-80
2023/05/15 11:15:43;;;;;;;0.30;0.20;;;23.70;47.30;;;;;;6067406;23;20417;-80
2023/05/15 11:18:10;;;;;;;0.70;0.20;;;23.80;46.00;;;;;;6068581;23;20386;-81
2023/05/15 11:21:01;;;;;;;0.45;0.20;;;24.00;44.70;;;;;;6067722;23;20417;-80
2023/05/15 11:23:27;;;;;;;0.13;0.10;;;24.10;43.20;;;;;;6067457;23;20401;-79
2023/05/15 11:26:02;;;;;;;0.20;0.20;;;24.10;42.20;;;;;;6068594;23;20756;-79
2023/05/15 11:28:29;;;;;;;0.60;0.20;;;24.10;42.20;;;;;;6067169;23;20783;-80
2023/05/15 11:31:05;;;;;;;0.40;0.10;;;24.10;43.50;;;;;;6091810;23;20708;-79
2023/05/15 11:33:32;;;;;;;0.30;0.20;;;24.20;44.10;;;;;;6067564;23;20377;-79
2023/05/15 11:36:00;;;;;;;0.10;0.10;;;24.30;41.70;;;;;;6068053;23;20380;-79
2023/05/15 11:38:27;;;;;;;0.60;0.10;;;24.60;40.20;;;;;;6091759;23;20440;-80
2023/05/15 11:41:02;;;;;;;0.10;0.10;;;24.90;39.80;;;;;;6093180;23;20385;-80
2023/05/15 11:43:31;;;;;;;0.93;0.17;;;25.10;39.10;;;;;;6092539;23;20385;-80
2023/05/15 11:46:07;;;;;;;0.30;0.20;;;25.40;39.40;;;;;;6067171;23;20762;-79
2023/05/15 11:48:48;;;;;;;0.30;0.10;;;25.50;40.20;;;;;;6066814;23;20377;-80
2023/05/15 11:51:24;;;;;;;0.25;0.10;;;25.50;40.50;;;;;;6068106;23;20385;-79
2023/05/15 11:53:53;;;;;;;0.70;0.10;;;25.40;39.60;;;;;;6067034;23;20708;-80
2023/05/15 11:56:27;;;;;;;0.30;0.30;;;25.20;40.10;;;;;;6068724;23;20381;-80
2023/05/15 11:58:59;;;;;;;0.80;0.20;;;25.00;40.30;;;;;;6067171;23;20381;-79
2023/05/15 12:01:28;;;;;;;0.38;0.20;;;24.60;40.50;;;;;;6068145;23;20456;-80
2023/05/15 12:03:55;;;;;;;0.40;0.20;;;24.20;42.50;;;;;;6067270;23;21584;-78
2023/05/15 12:06:23;;;;;;;0.43;0.30;;;23.90;44.60;;;;;;6067765;23;20419;-79
2023/05/15 12:08:51;;;;;;;1.90;0.20;;;23.70;44.80;;;;;;6066851;23;20392;-80
2023/05/15 12:11:23;;;;;;;0.50;0.20;;;23.50;44.30;;;;;;6067376;23;20397;-79
2023/05/15 12:13:53;;;;;;;0.40;0.20;;;23.40;45.30;;;;;;6067531;23;20456;-79
2023/05/15 12:16:27;;;;;;;0.20;0.20;;;23.30;46.60;;;;;;6068314;23;20437;-80
2023/05/15 12:18:57;;;;;;;0.20;0.20;;;23.30;47.40;;;;;;6067101;23;20377;-80
2023/05/15 12:21:27;;;;;;;0.20;0.20;;;23.30;47.90;;;;;;6067953;23;20381;-80
2023/05/15 12:23:54;;;;;;;0.20;0.20;;;23.30;48.40;;;;;;6067348;23;20365;-80
2023/05/15 12:26:26;;;;;;;0.30;0.20;;;23.30;48.50;;;;;;6068598;23;20456;-79
2023/05/15 12:28:54;;;;;;;0.70;0.20;;;23.30;48.20;;;;;;6066740;23;20370;-79
2023/05/15 12:31:21;;;;;;;0.70;0.20;;;23.30;47.80;;;;;;6067924;23;20378;-80
2023/05/15 12:33:48;;;;;;;0.10;0.10;;;23.20;45.30;;;;;;6067015;23;20404;-79
2023/05/15 12:36:19;;;;;;;0.20;0.10;;;23.10;42.90;;;;;;6067965;23;20744;-80
2023/05/15 12:38:47;;;;;;;0.30;0.10;;;22.90;41.20;;;;;;6066861;23;20436;-80
2023/05/15 12:41:15;;;;;;;0.50;0.10;;;22.90;41.70;;;;;;6068042;23;20784;-79
2023/05/15 12:43:42;;;;;;;0.13;0.10;;;22.90;42.40;;;;;;6066461;23;20752;-79
2023/05/15 12:46:11;;;;;;;2.07;0.20;;;22.90;44.40;;;;;;6067816;23;20377;-79
2023/05/15 12:48:39;;;;;;;0.90;0.20;;;22.80;47.10;;;;;;6066082;23;20401;-79
2023/05/15 12:51:07;;;;;;;0.70;0.10;;;22.70;44.90;;;;;;6067533;23;20381;-79
2023/05/15 12:53:37;;;;;;;0.80;0.20;;;22.60;46.20;;;;;;6066464;23;20381;-82
2023/05/15 12:56:04;;;;;;;0.68;0.20;;;22.60;45.80;;;;;;6067889;23;20369;-80
2023/05/15 12:58:32;;;;;;;0.70;0.20;;;22.50;45.20;;;;;;6067411;23;20381;-80
2023/05/15 13:01:01;;;;;;;0.40;0.17;;;22.50;46.80;;;;;;6067175;23;20445;-79
2023/05/15 13:03:29;;;;;;;0.20;0.13;;;22.50;46.20;;;;;;6067271;23;20385;-79
2023/05/15 13:05:56;;;;;;;0.10;0.10;;;22.40;44.80;;;;;;6066754;23;20381;-79
2023/05/15 13:08:23;;;;;;;0.20;0.10;;;22.30;45.20;;;;;;6092904;23;20388;-80
2023/05/15 13:10:56;;;;;;;0.95;0.20;;;22.30;45.70;;;;;;6066810;23;20448;-81
2023/05/15 13:13:23;;;;;;;0.27;0.10;;;22.20;45.00;;;;;;6067704;23;20378;-79
2023/05/15 13:15:50;;;;;;;0.10;0.10;;;22.10;43.00;;;;;;6067067;23;20740;-79
2023/05/15 13:18:17;;;;;;;0.10;0.10;;;22.00;44.20;;;;;;6068793;23;20373;-79
2023/05/15 13:20:52;;;;;;;0.10;0.10;;;22.00;45.30;;;;;;6068719;23;20381;-79
2023/05/15 13:23:23;;;;;;;0.10;0.10;;;22.10;46.00;;;;;;6069409;23;20413;-79
2023/05/15 13:25:50;;;;;;;0.10;0.10;;;22.20;45.10;;;;;;6068908;23;20386;-80
2023/05/15 13:28:16;;;;;;;0.10;0.10;;;22.30;46.10;;;;;;6069187;23;20791;-79
2023/05/15 13:30:43;;;;;;;0.20;0.10;;;22.50;46.40;;;;;;6068487;23;20397;-80
2023/05/15 13:33:11;;;;;;;0.10;0.10;;;22.70;47.90;;;;;;6069785;23;20377;-80
2023/05/15 13:35:40;;;;;;;0.20;0.20;;;22.90;46.80;;;;;;6068766;23;20903;-80
2023/05/15 13:38:07;;;;;;;0.20;0.10;;;22.90;46.00;;;;;;6069544;23;20388;-79
2023/05/15 13:40:37;;;;;;;0.50;0.30;;;23.00;47.40;;;;;;6069902;23;20377;-79
2023/05/15 13:43:07;;;;;;;0.70;0.20;;;23.20;45.90;;;;;;6068799;23;20425;-79
2023/05/15 13:45:34;;;;;;;0.25;0.10;;;23.20;45.40;;;;;;6069355;23;20381;-79
2023/05/15 13:48:01;;;;;;;0.20;0.10;;;23.30;45.60;;;;;;6068131;23;20357;-80
2023/05/15 13:50:28;;;;;;;0.40;0.17;;;23.40;45.20;;;;;;6093427;23;20382;-79
2023/05/15 13:52:55;;;;;;;0.13;0.10;;;23.40;44.00;;;;;;6068746;23;20442;-79
2023/05/15 13:55:24;;;;;;;0.10;0.10;;;23.50;45.10;;;;;;6069374;23;20385;-80
2023/05/15 13:57:52;;;;;;;0.20;0.10;;;23.50;45.00;;;;;;6068595;23;20369;-79
2023/05/15 14:00:19;;;;;;;0.20;0.20;;;23.60;44.20;;;;;;6093843;23;20831;-79
2023/05/15 14:02:46;;;;;;;0.40;0.20;;;23.60;44.70;;;;;;6068153;23;20385;-79
2023/05/15 14:05:14;;;;;;;0.87;0.20;;;23.60;45.20;;;;;;6069196;23;20377;-80
2023/05/15 14:07:41;;;;;;;0.30;0.20;;;23.70;44.80;;;;;;6069292;23;20382;-80
2023/05/15 14:10:09;;;;;;;0.30;0.10;;;23.70;44.20;;;;;;6068081;23;20378;-79
2023/05/15 14:12:37;;;;;;;0.73;0.10;;;23.80;43.50;;;;;;6068921;23;20378;-81
2023/05/15 14:15:04;;;;;;;0.30;0.20;;;23.90;42.70;;;;;;6092781;23;22428;-79
2023/05/15 14:17:31;;;;;;;0.20;0.10;;;24.00;39.80;;;;;;6069018;23;20430;-79
2023/05/15 14:19:58;;;;;;;0.30;0.10;;;24.10;37.80;;;;;;6068080;23;20453;-79
2023/05/15 14:22:25;;;;;;;0.10;0.10;;;24.30;35.00;;;;;;6068606;23;20847;-79
2023/05/15 14:24:52;;;;;;;0.30;0.10;;;24.30;35.00;;;;;;6068019;23;20381;-78
2023/05/15 14:27:19;;;;;;;0.70;0.10;;;24.40;35.00;;;;;;6069314;23;20685;-78
2023/05/15 14:29:47;;;;;;;0.70;0.13;;;24.30;35.60;;;;;;6067668;23;20389;-80
2023/05/15 14:32:15;;;;;;;0.20;0.10;;;24.30;35.10;;;;;;6069123;23;20719;-79
2023/05/15 14:34:42;;;;;;;0.30;0.10;;;24.50;34.10;;;;;;6068571;23;20381;-79